createdAt,value
2019-01-20T00:04:58.196Z,78.9
2019-01-20T00:09:58.543Z,79.1
2019-01-20T00:14:58.553Z,79.4
2019-01-20T00:19:58.164Z,79.7
2019-01-20T00:24:58.298Z,79.7
2019-01-20T00:29:58.613Z,79.7
2019-01-20T00:34:58.466Z,80.3
2019-01-20T00:39:58.541Z,79.5
2019-01-20T00:45:02.861Z,79.6
2019-01-20T00:49:58.715Z,78.7
2019-01-20T00:54:58.334Z,78.5
2019-01-20T00:59:58.553Z,78.7
2019-01-20T01:04:58.700Z,78.1
2019-01-20T01:09:58.306Z,78.6
2019-01-20T01:14:59.872Z,78.7
2019-01-20T01:19:58.496Z,79
2019-01-20T01:24:59.233Z,78.8
2019-01-20T01:29:58.859Z,79.2
2019-01-20T01:34:58.519Z,79.2
2019-01-20T01:39:58.699Z,79.9
2019-01-20T01:44:58.391Z,79.3
2019-01-20T01:49:58.716Z,80.3
2019-01-20T01:54:58.377Z,80.3
2019-01-20T01:59:58.921Z,81.7
2019-01-20T02:10:43.333Z,81.4
2019-01-20T02:10:47.340Z,81.4
2019-01-20T02:14:58.175Z,81.6
2019-01-20T02:19:58.560Z,81.5
2019-01-20T02:24:58.261Z,81.8
2019-01-20T02:29:58.137Z,81.9
2019-01-20T02:34:58.306Z,81.9
2019-01-20T02:39:58.167Z,81.2
2019-01-20T02:44:58.572Z,80.4
2019-01-20T02:49:58.451Z,80.5
2019-01-20T02:54:58.321Z,80
2019-01-20T03:00:42.479Z,79.4
2019-01-20T03:04:58.290Z,80
2019-01-20T03:09:58.285Z,79.8
2019-01-20T03:15:00.324Z,79.4
2019-01-20T03:19:58.199Z,79.1
2019-01-20T03:24:58.515Z,78.7
2019-01-20T03:29:58.540Z,78.7
2019-01-20T03:34:58.049Z,78.9
2019-01-20T03:39:58.466Z,78.6
2019-01-20T03:44:58.125Z,79
2019-01-20T03:49:57.989Z,78.8
2019-01-20T03:54:58.347Z,78.5
2019-01-20T03:59:58.662Z,78.9
2019-01-20T04:04:58.265Z,78.4
2019-01-20T04:09:58.530Z,78.3
2019-01-20T04:14:58.456Z,78.1
2019-01-20T04:19:58.413Z,78.5
2019-01-20T04:24:58.175Z,79.2
2019-01-20T04:29:58.722Z,79.5
2019-01-20T04:34:58.303Z,80
2019-01-20T04:39:58.563Z,80.1
2019-01-20T04:44:58.546Z,79.6
2019-01-20T04:49:58.697Z,79.5
2019-01-20T04:54:58.536Z,79.8
2019-01-20T04:59:59.467Z,79.2
2019-01-20T05:04:58.166Z,79.3
2019-01-20T05:09:58.313Z,79.2
2019-01-20T05:14:57.963Z,78.8
2019-01-20T05:19:58.204Z,78.5
2019-01-20T05:24:58.047Z,78.4
2019-01-20T05:29:58.121Z,79.3
2019-01-20T05:34:58.346Z,79.1
2019-01-20T05:41:30.633Z,78.8
2019-01-20T05:44:57.916Z,79.1
2019-01-20T05:49:58.843Z,79.2
2019-01-20T05:54:58.375Z,78.8
2019-01-20T05:59:59.544Z,79
2019-01-20T06:04:58.200Z,78.9
2019-01-20T06:09:58.056Z,79
2019-01-20T06:14:58.060Z,79.2
2019-01-20T06:19:58.266Z,79.4
2019-01-20T06:24:57.889Z,80
2019-01-20T06:29:58.157Z,79.5
2019-01-20T06:34:58.188Z,78.3
2019-01-20T06:39:58.413Z,78.1
2019-01-20T06:44:58.215Z,77.9
2019-01-20T06:49:58.495Z,78.2
2019-01-20T06:54:58.120Z,78.5
2019-01-20T06:59:58.921Z,78.7
2019-01-20T07:04:58.060Z,78.8
2019-01-20T07:09:58.070Z,79.2
2019-01-20T07:14:58.259Z,78.7
2019-01-20T07:19:57.880Z,78.3
2019-01-20T07:24:57.865Z,78.3
2019-01-20T07:29:58.368Z,78.1
2019-01-20T07:34:57.824Z,78.2
2019-01-20T07:39:58.039Z,76.5
2019-01-20T07:44:58.113Z,76.5
2019-01-20T07:49:58.277Z,75.7
2019-01-20T07:54:57.797Z,75.3
2019-01-20T07:59:58.180Z,75.7
2019-01-20T08:04:58.169Z,73.6
2019-01-20T08:09:58.365Z,74.1
2019-01-20T08:14:57.815Z,73.6
2019-01-20T08:19:58.247Z,72.8
2019-01-20T08:24:57.675Z,72
2019-01-20T08:29:58.399Z,71.8
2019-01-20T08:34:57.531Z,72
2019-01-20T08:39:58.610Z,71.6
2019-01-20T08:46:04.707Z,70.9
2019-01-20T08:49:57.806Z,70.8
2019-01-20T08:54:57.767Z,69.5
2019-01-20T08:59:57.937Z,69.4
2019-01-20T09:04:57.849Z,68.6
2019-01-20T09:09:57.857Z,67.7
2019-01-20T09:14:57.915Z,66.8
2019-01-20T09:19:57.843Z,67.3
2019-01-20T09:24:57.483Z,65.7
2019-01-20T10:15:03.209Z,61.1
2019-01-20T10:19:59.369Z,59.6
2019-01-20T10:24:59.427Z,60.1
2019-01-20T10:29:59.706Z,59.8
2019-01-20T10:37:05.768Z,58.7
2019-01-20T10:39:59.475Z,58.6
2019-01-20T10:44:59.659Z,56.6
2019-01-20T10:49:59.692Z,58.3
2019-01-20T10:54:59.551Z,58.1
2019-01-20T11:01:58.361Z,57.5
2019-01-20T11:05:00.563Z,57.5
2019-01-20T11:09:59.339Z,54.5
2019-01-20T11:14:59.416Z,54.2
2019-01-20T11:19:59.363Z,53.5
2019-01-20T11:24:59.488Z,53
2019-01-20T11:29:59.517Z,54.8
2019-01-20T11:34:59.361Z,52.5
2019-01-20T11:39:59.417Z,53.1
2019-01-20T11:44:59.270Z,51.6
2019-01-20T11:49:59.432Z,50.6
2019-01-20T11:54:59.207Z,50.1
2019-01-20T11:59:59.583Z,51.6
2019-01-20T12:04:59.357Z,53.3
2019-01-20T12:09:59.601Z,49.7
2019-01-20T12:14:59.545Z,50.8
2019-01-20T12:19:59.552Z,50
2019-01-20T12:24:59.311Z,52.2
2019-01-20T12:29:59.327Z,52.4
2019-01-20T12:34:59.373Z,50.9
2019-01-20T12:39:59.218Z,50.5
2019-01-20T12:44:59.383Z,50.7
2019-01-20T12:49:59.473Z,50.8
2019-01-20T12:54:59.294Z,48.4
2019-01-20T12:59:59.333Z,48.5
2019-01-20T13:04:59.503Z,48.6
2019-01-20T13:09:59.202Z,47.8
2019-01-20T13:14:59.296Z,48
2019-01-20T13:19:59.229Z,47.2
2019-01-20T13:24:59.403Z,47.4
2019-01-20T13:29:59.549Z,46.5
2019-01-20T13:34:59.117Z,47.9
2019-01-20T13:39:59.374Z,48.5
2019-01-20T13:44:59.314Z,48.5
2019-01-20T13:49:59.093Z,48.6
2019-01-20T13:54:59.047Z,48.5
2019-01-20T13:59:59.305Z,49.2
2019-01-20T14:04:59.093Z,49.3
2019-01-20T14:09:59.420Z,50.1
2019-01-20T14:14:59.281Z,50.4
2019-01-20T14:21:30.078Z,51.4
2019-01-20T14:24:59.384Z,51.8
2019-01-20T14:29:59.341Z,51.2
2019-01-20T14:34:59.162Z,52.8
2019-01-20T14:39:59.267Z,54.7
2019-01-20T14:45:01.196Z,55.2
2019-01-20T14:49:59.040Z,56
2019-01-20T14:54:59.245Z,57.1
2019-01-20T14:59:59.053Z,56.6
2019-01-20T15:04:58.884Z,56.7
2019-01-20T15:09:59.019Z,56.7
2019-01-20T15:14:59.150Z,57.4
2019-01-20T15:19:59.001Z,58
2019-01-20T15:24:59.153Z,58
2019-01-20T15:29:59.240Z,59
2019-01-20T15:34:59.057Z,65
2019-01-20T15:39:59.492Z,67.6
2019-01-20T15:44:59.025Z,68.2
2019-01-20T15:49:59.085Z,67.5
2019-01-20T15:54:59.193Z,65.9
2019-01-20T15:59:58.956Z,65.8
2019-01-20T16:04:59.435Z,64.8
2019-01-20T16:10:00.477Z,64.2
2019-01-20T16:14:58.729Z,64.6
2019-01-20T16:19:58.843Z,67.5
2019-01-20T16:24:59.026Z,70.9
2019-01-20T16:29:58.748Z,72.1
2019-01-20T16:34:58.709Z,72.6
2019-01-20T16:39:59.116Z,73.8
2019-01-20T16:44:59.074Z,74.3
2019-01-20T16:49:59.041Z,75.2
2019-01-20T16:54:59.116Z,75
2019-01-20T16:59:59.349Z,76.1
2019-01-20T17:04:58.741Z,76.2
2019-01-20T17:09:58.993Z,76.9
2019-01-20T17:14:58.682Z,76.9
2019-01-20T17:19:58.797Z,76.8
2019-01-20T17:24:58.979Z,77.7
2019-01-20T17:29:58.996Z,78.1
2019-01-20T17:34:58.918Z,78.5
2019-01-20T17:39:58.938Z,77.4
2019-01-20T17:44:58.956Z,77.4
2019-01-20T17:49:59.205Z,77.8
2019-01-20T17:54:59.037Z,78.4
2019-01-20T17:59:59.279Z,79.6
2019-01-20T18:04:59.675Z,79.2
2019-01-20T18:09:59.249Z,78.1
2019-01-20T18:15:26.329Z,78.8
2019-01-20T18:19:59.024Z,79.1
2019-01-20T18:24:58.752Z,78.4
2019-01-20T18:31:29.630Z,78.8
2019-01-20T18:34:58.658Z,79.6
2019-01-20T18:39:59.005Z,79.7
2019-01-20T18:44:58.585Z,79.1
2019-01-20T18:49:59.092Z,79.2
2019-01-20T18:55:30.398Z,78.2
2019-01-20T18:59:58.744Z,78.8
2019-01-20T19:09:53.950Z,80.3
2019-01-20T19:09:58.624Z,80.9
2019-01-20T19:14:58.611Z,80.6
2019-01-20T19:19:58.842Z,80.4
2019-01-20T19:24:58.966Z,80
2019-01-20T19:29:58.873Z,80.3
2019-01-20T19:34:58.391Z,80.6
2019-01-20T19:39:58.901Z,79.9
2019-01-20T19:44:58.733Z,79.9
2019-01-20T20:20:09.229Z,81.4
2019-01-20T20:25:02.084Z,81.5
2019-01-20T20:29:59.241Z,82
2019-01-20T20:34:59.134Z,82.1
2019-01-20T20:39:59.374Z,82.4
2019-01-20T20:44:59.414Z,82.6
2019-01-20T20:49:59.329Z,82.6
2019-01-20T21:05:00.556Z,83.4
2019-01-20T21:09:59.342Z,83.8
2019-01-20T21:15:03.189Z,83.6
2019-01-20T21:19:59.074Z,83.4
2019-01-20T21:24:59.173Z,83.6
2019-01-20T21:29:59.074Z,83.9
2019-01-20T21:34:59.283Z,84.1
2019-01-20T21:39:59.376Z,84.8
2019-01-20T21:44:59.420Z,84.6
2019-01-20T21:49:59.215Z,85.4
2019-01-20T21:54:59.339Z,85.3
2019-01-20T21:59:59.128Z,85.6
2019-01-20T22:04:59.400Z,85.8
2019-01-20T22:09:59.060Z,85.6
2019-01-20T22:14:59.228Z,85.3
2019-01-20T22:19:59.365Z,85.6
2019-01-20T22:24:59.304Z,86.2
2019-01-20T22:29:59.080Z,86.3
2019-01-20T22:34:59.171Z,86.4
2019-01-20T22:39:59.045Z,86
2019-01-20T22:44:59.300Z,85.9
2019-01-20T22:49:59.057Z,86
2019-01-20T22:54:59.247Z,85.8
2019-01-20T22:59:59.005Z,86.1
2019-01-20T23:04:59.129Z,86.3
2019-01-20T23:10:03.254Z,86.4
2019-01-20T23:34:58.975Z,87
2019-01-20T23:39:59.228Z,87.3
2019-01-20T23:44:59.208Z,87.2
2019-01-20T23:49:58.977Z,86.9
2019-01-20T23:54:58.841Z,87
2019-01-20T23:59:59.105Z,87
